sensor_id;sensor_type;location;lat;lon;timestamp;temperature;humidity
29241;DHT22;16268;49.880;8.648;2022-09-27T00:01:06;11.10;99.90
29241;DHT22;16268;49.880;8.648;2022-09-27T00:03:32;11.20;99.90
29241;DHT22;16268;49.880;8.648;2022-09-27T00:08:32;11.20;99.90
29241;DHT22;16268;49.880;8.648;2022-09-27T00:11:02;11.20;99.90
29241;DHT22;16268;49.880;8.648;2022-09-27T00:13:28;11.20;99.90
29241;DHT22;16268;49.880;8.648;2022-09-27T00:15:56;11.20;99.90
29241;DHT22;16268;49.880;8.648;2022-09-27T00:18:21;11.20;99.90
29241;DHT22;16268;49.880;8.648;2022-09-27T00:20:47;11.20;99.90
29241;DHT22;16268;49.880;8.648;2022-09-27T00:23:13;11.20;99.90
29241;DHT22;16268;49.880;8.648;2022-09-27T00:25:38;11.20;99.90
29241;DHT22;16268;49.880;8.648;2022-09-27T00:28:04;11.30;99.90
29241;DHT22;16268;49.880;8.648;2022-09-27T00:30:30;11.30;99.90
29241;DHT22;16268;49.880;8.648;2022-09-27T00:32:55;11.20;99.90
29241;DHT22;16268;49.880;8.648;2022-09-27T00:35:21;11.30;99.90
29241;DHT22;16268;49.880;8.648;2022-09-27T00:37:49;11.30;99.90
29241;DHT22;16268;49.880;8.648;2022-09-27T00:40:15;11.30;99.90
29241;DHT22;16268;49.880;8.648;2022-09-27T00:42:41;11.30;99.90
29241;DHT22;16268;49.880;8.648;2022-09-27T00:45:12;11.30;99.90
29241;DHT22;16268;49.880;8.648;2022-09-27T00:47:56;11.30;99.90
29241;DHT22;16268;49.880;8.648;2022-09-27T00:50:35;11.40;99.90
29241;DHT22;16268;49.880;8.648;2022-09-27T00:55:35;11.30;99.90
29241;DHT22;16268;49.880;8.648;2022-09-27T00:58:03;11.30;99.90
29241;DHT22;16268;49.880;8.648;2022-09-27T01:00:30;11.30;99.90
29241;DHT22;16268;49.880;8.648;2022-09-27T01:02:56;11.20;99.90
29241;DHT22;16268;49.880;8.648;2022-09-27T01:05:24;11.20;99.90
29241;DHT22;16268;49.880;8.648;2022-09-27T01:07:52;11.10;99.90
29241;DHT22;16268;49.880;8.648;2022-09-27T01:10:21;11.20;99.90
29241;DHT22;16268;49.880;8.648;2022-09-27T01:12:57;11.10;99.90
29241;DHT22;16268;49.880;8.648;2022-09-27T01:24:00;11.30;99.90
29241;DHT22;16268;49.880;8.648;2022-09-27T01:31:32;11.30;99.90
29241;DHT22;16268;49.880;8.648;2022-09-27T01:34:08;11.30;99.90
29241;DHT22;16268;49.880;8.648;2022-09-27T01:42:48;11.30;99.90
29241;DHT22;16268;49.880;8.648;2022-09-27T01:45:28;11.20;99.90
29241;DHT22;16268;49.880;8.648;2022-09-27T01:48:01;11.20;99.90
29241;DHT22;16268;49.880;8.648;2022-09-27T01:50:34;11.20;99.90
29241;DHT22;16268;49.880;8.648;2022-09-27T01:54:04;11.20;99.90
29241;DHT22;16268;49.880;8.648;2022-09-27T01:56:02;11.20;99.90
29241;DHT22;16268;49.880;8.648;2022-09-27T01:58:33;11.20;99.90
29241;DHT22;16268;49.880;8.648;2022-09-27T02:01:02;11.10;99.90
29241;DHT22;16268;49.880;8.648;2022-09-27T02:03:38;11.20;99.90
29241;DHT22;16268;49.880;8.648;2022-09-27T02:06:10;11.10;99.90
29241;DHT22;16268;49.880;8.648;2022-09-27T02:08:40;11.10;99.90
29241;DHT22;16268;49.880;8.648;2022-09-27T02:11:12;11.20;99.90
29241;DHT22;16268;49.880;8.648;2022-09-27T02:19:26;11.20;99.90
29241;DHT22;16268;49.880;8.648;2022-09-27T02:22:04;11.20;99.90
29241;DHT22;16268;49.880;8.648;2022-09-27T02:24:39;11.10;99.90
29241;DHT22;16268;49.880;8.648;2022-09-27T02:27:40;11.20;99.90
29241;DHT22;16268;49.880;8.648;2022-09-27T02:30:11;11.20;99.90
29241;DHT22;16268;49.880;8.648;2022-09-27T02:32:37;11.10;99.90
29241;DHT22;16268;49.880;8.648;2022-09-27T02:35:17;11.10;99.90
29241;DHT22;16268;49.880;8.648;2022-09-27T02:37:44;11.10;99.90
29241;DHT22;16268;49.880;8.648;2022-09-27T02:40:09;11.10;99.90
29241;DHT22;16268;49.880;8.648;2022-09-27T02:42:36;11.10;99.90
29241;DHT22;16268;49.880;8.648;2022-09-27T02:45:03;11.10;99.90
29241;DHT22;16268;49.880;8.648;2022-09-27T02:56:09;11.20;99.90
29241;DHT22;16268;49.880;8.648;2022-09-27T03:04:14;11.20;99.90
29241;DHT22;16268;49.880;8.648;2022-09-27T03:06:44;11.20;99.90
29241;DHT22;16268;49.880;8.648;2022-09-27T03:09:22;11.20;99.90
29241;DHT22;16268;49.880;8.648;2022-09-27T03:11:48;11.30;99.90
29241;DHT22;16268;49.880;8.648;2022-09-27T03:14:13;11.30;99.90
29241;DHT22;16268;49.880;8.648;2022-09-27T03:16:39;11.30;99.90
29241;DHT22;16268;49.880;8.648;2022-09-27T03:19:05;11.40;99.90
29241;DHT22;16268;49.880;8.648;2022-09-27T03:21:30;11.30;99.90
29241;DHT22;16268;49.880;8.648;2022-09-27T03:23:56;11.40;99.90
29241;DHT22;16268;49.880;8.648;2022-09-27T03:26:22;11.40;99.90
29241;DHT22;16268;49.880;8.648;2022-09-27T03:28:47;11.40;99.90
29241;DHT22;16268;49.880;8.648;2022-09-27T03:31:13;11.30;99.90
29241;DHT22;16268;49.880;8.648;2022-09-27T03:33:39;11.30;99.90
29241;DHT22;16268;49.880;8.648;2022-09-27T03:36:05;11.30;99.90
29241;DHT22;16268;49.880;8.648;2022-09-27T03:38:31;11.30;99.90
29241;DHT22;16268;49.880;8.648;2022-09-27T03:40:56;11.30;99.90
29241;DHT22;16268;49.880;8.648;2022-09-27T03:43:23;11.20;99.90
29241;DHT22;16268;49.880;8.648;2022-09-27T03:45:49;11.20;99.90
29241;DHT22;16268;49.880;8.648;2022-09-27T03:48:14;11.30;99.90
29241;DHT22;16268;49.880;8.648;2022-09-27T03:50:40;11.30;99.90
29241;DHT22;16268;49.880;8.648;2022-09-27T03:53:05;11.20;99.90
29241;DHT22;16268;49.880;8.648;2022-09-27T03:55:31;11.20;99.90
29241;DHT22;16268;49.880;8.648;2022-09-27T03:57:57;11.30;99.90
29241;DHT22;16268;49.880;8.648;2022-09-27T04:00:22;11.20;99.90
29241;DHT22;16268;49.880;8.648;2022-09-27T04:02:49;11.20;99.90
29241;DHT22;16268;49.880;8.648;2022-09-27T04:05:15;11.20;99.90
29241;DHT22;16268;49.880;8.648;2022-09-27T04:07:47;11.20;99.90
29241;DHT22;16268;49.880;8.648;2022-09-27T04:10:14;11.10;99.90
29241;DHT22;16268;49.880;8.648;2022-09-27T04:12:40;11.10;99.90
29241;DHT22;16268;49.880;8.648;2022-09-27T04:15:06;11.00;99.90
29241;DHT22;16268;49.880;8.648;2022-09-27T04:17:33;11.00;99.90
29241;DHT22;16268;49.880;8.648;2022-09-27T04:19:58;11.00;99.90
29241;DHT22;16268;49.880;8.648;2022-09-27T04:22:24;10.90;99.90
29241;DHT22;16268;49.880;8.648;2022-09-27T04:24:50;10.90;99.90
29241;DHT22;16268;49.880;8.648;2022-09-27T04:27:15;10.90;99.90
29241;DHT22;16268;49.880;8.648;2022-09-27T04:29:41;10.80;99.90
29241;DHT22;16268;49.880;8.648;2022-09-27T04:32:10;10.80;99.90
29241;DHT22;16268;49.880;8.648;2022-09-27T04:34:36;10.80;99.90
29241;DHT22;16268;49.880;8.648;2022-09-27T04:37:20;10.70;99.90
29241;DHT22;16268;49.880;8.648;2022-09-27T04:39:45;10.70;99.90
29241;DHT22;16268;49.880;8.648;2022-09-27T04:42:12;10.70;99.90
29241;DHT22;16268;49.880;8.648;2022-09-27T04:44:38;10.70;99.90
29241;DHT22;16268;49.880;8.648;2022-09-27T04:47:03;10.70;99.90
29241;DHT22;16268;49.880;8.648;2022-09-27T04:49:29;10.60;99.90
29241;DHT22;16268;49.880;8.648;2022-09-27T04:51:54;10.60;99.90
29241;DHT22;16268;49.880;8.648;2022-09-27T04:54:21;10.70;99.90
29241;DHT22;16268;49.880;8.648;2022-09-27T04:56:46;10.70;99.90
29241;DHT22;16268;49.880;8.648;2022-09-27T04:59:13;10.70;99.90
29241;DHT22;16268;49.880;8.648;2022-09-27T05:01:39;10.70;99.90
29241;DHT22;16268;49.880;8.648;2022-09-27T05:04:05;10.70;99.90
29241;DHT22;16268;49.880;8.648;2022-09-27T05:06:30;10.70;99.90
29241;DHT22;16268;49.880;8.648;2022-09-27T05:08:56;10.80;99.90
29241;DHT22;16268;49.880;8.648;2022-09-27T05:11:23;10.80;99.90
29241;DHT22;16268;49.880;8.648;2022-09-27T05:13:48;10.70;99.90
29241;DHT22;16268;49.880;8.648;2022-09-27T05:16:14;10.80;99.90
29241;DHT22;16268;49.880;8.648;2022-09-27T05:18:40;10.80;99.90
29241;DHT22;16268;49.880;8.648;2022-09-27T05:21:06;10.80;99.90
29241;DHT22;16268;49.880;8.648;2022-09-27T05:23:32;10.80;99.90
29241;DHT22;16268;49.880;8.648;2022-09-27T05:25:57;10.80;99.90
29241;DHT22;16268;49.880;8.648;2022-09-27T05:28:27;10.80;99.90
29241;DHT22;16268;49.880;8.648;2022-09-27T05:30:52;10.80;99.90
29241;DHT22;16268;49.880;8.648;2022-09-27T05:33:18;10.80;99.90
29241;DHT22;16268;49.880;8.648;2022-09-27T05:35:53;10.80;99.90
29241;DHT22;16268;49.880;8.648;2022-09-27T05:38:19;10.80;99.90
29241;DHT22;16268;49.880;8.648;2022-09-27T05:40:45;10.80;99.90
29241;DHT22;16268;49.880;8.648;2022-09-27T05:43:12;10.80;99.90
29241;DHT22;16268;49.880;8.648;2022-09-27T05:45:38;10.80;99.90
29241;DHT22;16268;49.880;8.648;2022-09-27T05:48:04;10.80;99.90
29241;DHT22;16268;49.880;8.648;2022-09-27T05:50:30;10.90;99.90
29241;DHT22;16268;49.880;8.648;2022-09-27T05:52:55;10.80;99.90
29241;DHT22;16268;49.880;8.648;2022-09-27T05:55:21;10.80;99.90
29241;DHT22;16268;49.880;8.648;2022-09-27T05:57:57;10.90;99.90
29241;DHT22;16268;49.880;8.648;2022-09-27T06:00:24;10.90;99.90
29241;DHT22;16268;49.880;8.648;2022-09-27T06:02:58;10.90;99.90
29241;DHT22;16268;49.880;8.648;2022-09-27T06:05:26;10.90;99.90
29241;DHT22;16268;49.880;8.648;2022-09-27T06:07:57;10.90;99.90
29241;DHT22;16268;49.880;8.648;2022-09-27T06:10:23;11.00;99.90
29241;DHT22;16268;49.880;8.648;2022-09-27T06:12:49;11.00;99.90
29241;DHT22;16268;49.880;8.648;2022-09-27T06:15:14;11.00;99.90
29241;DHT22;16268;49.880;8.648;2022-09-27T06:17:40;11.00;99.90
29241;DHT22;16268;49.880;8.648;2022-09-27T06:20:06;11.10;99.90
29241;DHT22;16268;49.880;8.648;2022-09-27T06:22:33;11.20;99.90
29241;DHT22;16268;49.880;8.648;2022-09-27T06:24:58;11.20;99.90
29241;DHT22;16268;49.880;8.648;2022-09-27T06:27:24;11.20;99.90
29241;DHT22;16268;49.880;8.648;2022-09-27T06:29:51;11.30;99.90
29241;DHT22;16268;49.880;8.648;2022-09-27T06:32:16;11.30;99.90
29241;DHT22;16268;49.880;8.648;2022-09-27T06:34:42;11.20;99.90
29241;DHT22;16268;49.880;8.648;2022-09-27T06:37:08;11.20;99.90
29241;DHT22;16268;49.880;8.648;2022-09-27T06:39:34;11.20;99.90
29241;DHT22;16268;49.880;8.648;2022-09-27T06:41:59;11.20;99.90
29241;DHT22;16268;49.880;8.648;2022-09-27T06:44:25;11.30;99.90
29241;DHT22;16268;49.880;8.648;2022-09-27T06:46:51;11.30;99.90
29241;DHT22;16268;49.880;8.648;2022-09-27T06:49:18;11.40;99.90
29241;DHT22;16268;49.880;8.648;2022-09-27T06:51:44;11.40;99.90
29241;DHT22;16268;49.880;8.648;2022-09-27T06:54:10;11.40;99.90
29241;DHT22;16268;49.880;8.648;2022-09-27T06:56:36;11.40;99.90
29241;DHT22;16268;49.880;8.648;2022-09-27T06:59:01;11.40;99.90
29241;DHT22;16268;49.880;8.648;2022-09-27T07:01:45;11.40;99.90
29241;DHT22;16268;49.880;8.648;2022-09-27T07:04:11;11.40;99.90
29241;DHT22;16268;49.880;8.648;2022-09-27T07:06:37;11.40;99.90
29241;DHT22;16268;49.880;8.648;2022-09-27T07:09:03;11.40;99.90
29241;DHT22;16268;49.880;8.648;2022-09-27T07:11:33;11.50;99.90
29241;DHT22;16268;49.880;8.648;2022-09-27T07:13:59;11.50;99.90
29241;DHT22;16268;49.880;8.648;2022-09-27T07:16:25;11.50;99.90
29241;DHT22;16268;49.880;8.648;2022-09-27T07:18:50;11.50;99.90
29241;DHT22;16268;49.880;8.648;2022-09-27T07:21:16;11.50;99.90
29241;DHT22;16268;49.880;8.648;2022-09-27T07:23:41;11.40;99.90
29241;DHT22;16268;49.880;8.648;2022-09-27T07:26:08;11.40;99.90
29241;DHT22;16268;49.880;8.648;2022-09-27T07:28:34;11.40;99.90
29241;DHT22;16268;49.880;8.648;2022-09-27T07:31:00;11.40;99.90
29241;DHT22;16268;49.880;8.648;2022-09-27T07:33:27;11.40;99.90
29241;DHT22;16268;49.880;8.648;2022-09-27T07:35:53;11.50;99.90
29241;DHT22;16268;49.880;8.648;2022-09-27T07:38:18;11.60;99.90
29241;DHT22;16268;49.880;8.648;2022-09-27T07:40:44;11.80;99.90
29241;DHT22;16268;49.880;8.648;2022-09-27T07:43:09;11.90;99.90
29241;DHT22;16268;49.880;8.648;2022-09-27T07:45:36;12.10;99.90
29241;DHT22;16268;49.880;8.648;2022-09-27T07:48:06;12.30;99.90
29241;DHT22;16268;49.880;8.648;2022-09-27T07:50:33;12.60;99.90
29241;DHT22;16268;49.880;8.648;2022-09-27T07:52:59;12.70;99.90
29241;DHT22;16268;49.880;8.648;2022-09-27T07:55:24;12.80;99.90
29241;DHT22;16268;49.880;8.648;2022-09-27T07:57:50;12.80;99.90
29241;DHT22;16268;49.880;8.648;2022-09-27T08:00:18;12.70;99.90
29241;DHT22;16268;49.880;8.648;2022-09-27T08:02:44;12.80;99.90
29241;DHT22;16268;49.880;8.648;2022-09-27T08:05:11;12.80;99.90
29241;DHT22;16268;49.880;8.648;2022-09-27T08:07:38;12.90;99.90
29241;DHT22;16268;49.880;8.648;2022-09-27T08:10:05;12.90;99.90
29241;DHT22;16268;49.880;8.648;2022-09-27T08:12:31;12.90;99.90
29241;DHT22;16268;49.880;8.648;2022-09-27T08:14:57;12.90;99.90
29241;DHT22;16268;49.880;8.648;2022-09-27T08:17:27;12.80;99.90
29241;DHT22;16268;49.880;8.648;2022-09-27T08:19:52;12.90;99.90
29241;DHT22;16268;49.880;8.648;2022-09-27T08:22:18;13.00;99.90
29241;DHT22;16268;49.880;8.648;2022-09-27T08:24:46;13.40;99.90
29241;DHT22;16268;49.880;8.648;2022-09-27T08:27:15;14.00;99.90
29241;DHT22;16268;49.880;8.648;2022-09-27T08:29:40;14.50;99.90
29241;DHT22;16268;49.880;8.648;2022-09-27T08:32:09;14.70;99.90
29241;DHT22;16268;49.880;8.648;2022-09-27T08:34:38;14.80;99.90
29241;DHT22;16268;49.880;8.648;2022-09-27T08:37:04;15.10;99.90
29241;DHT22;16268;49.880;8.648;2022-09-27T08:39:33;15.20;99.90
29241;DHT22;16268;49.880;8.648;2022-09-27T08:42:23;15.10;99.90
29241;DHT22;16268;49.880;8.648;2022-09-27T08:47:58;14.60;99.90
29241;DHT22;16268;49.880;8.648;2022-09-27T08:50:36;14.50;99.90
29241;DHT22;16268;49.880;8.648;2022-09-27T08:53:10;14.80;99.90
29241;DHT22;16268;49.880;8.648;2022-09-27T08:55:42;14.90;99.90
29241;DHT22;16268;49.880;8.648;2022-09-27T08:58:24;14.80;99.90
29241;DHT22;16268;49.880;8.648;2022-09-27T09:00:52;14.50;99.90
29241;DHT22;16268;49.880;8.648;2022-09-27T09:03:22;14.20;99.90
29241;DHT22;16268;49.880;8.648;2022-09-27T09:08:41;14.40;99.90
29241;DHT22;16268;49.880;8.648;2022-09-27T09:11:20;15.30;99.90
29241;DHT22;16268;49.880;8.648;2022-09-27T09:19:46;16.90;99.90
29241;DHT22;16268;49.880;8.648;2022-09-27T09:30:45;16.00;99.90
29241;DHT22;16268;49.880;8.648;2022-09-27T09:33:31;16.10;99.90
29241;DHT22;16268;49.880;8.648;2022-09-27T09:36:12;16.20;99.90
29241;DHT22;16268;49.880;8.648;2022-09-27T09:38:46;16.40;99.90
29241;DHT22;16268;49.880;8.648;2022-09-27T09:43:51;16.10;99.90
29241;DHT22;16268;49.880;8.648;2022-09-27T09:46:41;15.80;99.90
29241;DHT22;16268;49.880;8.648;2022-09-27T09:49:19;15.70;99.90
29241;DHT22;16268;49.880;8.648;2022-09-27T09:51:50;15.70;99.90
29241;DHT22;16268;49.880;8.648;2022-09-27T09:54:29;15.40;99.90
29241;DHT22;16268;49.880;8.648;2022-09-27T10:00:00;15.10;99.90
29241;DHT22;16268;49.880;8.648;2022-09-27T10:02:41;15.00;99.90
29241;DHT22;16268;49.880;8.648;2022-09-27T10:05:12;14.70;99.90
29241;DHT22;16268;49.880;8.648;2022-09-27T10:07:38;14.40;99.90
29241;DHT22;16268;49.880;8.648;2022-09-27T10:10:06;14.30;99.90
29241;DHT22;16268;49.880;8.648;2022-09-27T10:12:32;14.20;99.90
29241;DHT22;16268;49.880;8.648;2022-09-27T10:15:02;14.10;99.90
29241;DHT22;16268;49.880;8.648;2022-09-27T10:17:35;14.10;99.90
29241;DHT22;16268;49.880;8.648;2022-09-27T10:20:03;14.20;99.90
29241;DHT22;16268;49.880;8.648;2022-09-27T10:22:35;14.30;99.90
29241;DHT22;16268;49.880;8.648;2022-09-27T10:25:04;14.20;99.90
29241;DHT22;16268;49.880;8.648;2022-09-27T10:27:43;14.30;99.90
29241;DHT22;16268;49.880;8.648;2022-09-27T10:30:31;14.30;99.90
29241;DHT22;16268;49.880;8.648;2022-09-27T10:33:20;14.30;99.90
29241;DHT22;16268;49.880;8.648;2022-09-27T10:35:46;14.50;99.90
29241;DHT22;16268;49.880;8.648;2022-09-27T10:40:53;15.70;99.90
29241;DHT22;16268;49.880;8.648;2022-09-27T10:43:27;16.30;99.90
29241;DHT22;16268;49.880;8.648;2022-09-27T10:48:32;16.70;99.90
29241;DHT22;16268;49.880;8.648;2022-09-27T10:51:04;16.50;99.90
29241;DHT22;16268;49.880;8.648;2022-09-27T10:53:31;16.60;99.90
29241;DHT22;16268;49.880;8.648;2022-09-27T10:55:57;16.60;99.90
29241;DHT22;16268;49.880;8.648;2022-09-27T11:01:00;16.50;99.90
29241;DHT22;16268;49.880;8.648;2022-09-27T11:03:29;16.60;99.90
29241;DHT22;16268;49.880;8.648;2022-09-27T11:05:56;16.30;99.90
29241;DHT22;16268;49.880;8.648;2022-09-27T11:11:02;15.60;99.90
29241;DHT22;16268;49.880;8.648;2022-09-27T11:13:29;15.50;99.90
29241;DHT22;16268;49.880;8.648;2022-09-27T11:16:28;15.50;99.90
29241;DHT22;16268;49.880;8.648;2022-09-27T11:22:02;16.00;99.90
29241;DHT22;16268;49.880;8.648;2022-09-27T11:27:24;16.50;99.90
29241;DHT22;16268;49.880;8.648;2022-09-27T11:30:12;16.60;99.90
29241;DHT22;16268;49.880;8.648;2022-09-27T11:35:50;16.40;99.90
29241;DHT22;16268;49.880;8.648;2022-09-27T11:38:37;16.20;99.90
29241;DHT22;16268;49.880;8.648;2022-09-27T11:46:46;15.60;99.90
29241;DHT22;16268;49.880;8.648;2022-09-27T11:51:52;15.70;99.90
29241;DHT22;16268;49.880;8.648;2022-09-27T11:54:58;15.90;99.90
29241;DHT22;16268;49.880;8.648;2022-09-27T12:00:15;16.00;99.90
29241;DHT22;16268;49.880;8.648;2022-09-27T12:06:02;16.10;99.90
29241;DHT22;16268;49.880;8.648;2022-09-27T12:08:46;16.10;99.90
29241;DHT22;16268;49.880;8.648;2022-09-27T12:11:28;16.00;99.90
29241;DHT22;16268;49.880;8.648;2022-09-27T12:14:01;15.80;99.90
29241;DHT22;16268;49.880;8.648;2022-09-27T12:16:30;15.80;99.90
29241;DHT22;16268;49.880;8.648;2022-09-27T12:18:56;15.80;99.90
29241;DHT22;16268;49.880;8.648;2022-09-27T12:21:23;15.90;99.90
29241;DHT22;16268;49.880;8.648;2022-09-27T12:23:53;16.00;99.90
29241;DHT22;16268;49.880;8.648;2022-09-27T12:26:29;16.00;99.90
29241;DHT22;16268;49.880;8.648;2022-09-27T12:28:59;16.00;99.90
29241;DHT22;16268;49.880;8.648;2022-09-27T12:31:42;15.80;99.90
29241;DHT22;16268;49.880;8.648;2022-09-27T12:34:29;15.80;99.90
29241;DHT22;16268;49.880;8.648;2022-09-27T12:37:23;15.70;99.90
29241;DHT22;16268;49.880;8.648;2022-09-27T12:42:35;15.60;99.90
29241;DHT22;16268;49.880;8.648;2022-09-27T12:45:02;15.70;99.90
29241;DHT22;16268;49.880;8.648;2022-09-27T12:47:34;15.90;99.90
29241;DHT22;16268;49.880;8.648;2022-09-27T12:52:44;16.10;99.90
29241;DHT22;16268;49.880;8.648;2022-09-27T12:55:22;16.10;99.90
29241;DHT22;16268;49.880;8.648;2022-09-27T13:00:58;16.00;99.90
29241;DHT22;16268;49.880;8.648;2022-09-27T13:03:59;15.90;99.90
29241;DHT22;16268;49.880;8.648;2022-09-27T13:06:35;15.60;99.90
29241;DHT22;16268;49.880;8.648;2022-09-27T13:14:24;15.20;99.90
29241;DHT22;16268;49.880;8.648;2022-09-27T13:16:51;15.10;99.90
29241;DHT22;16268;49.880;8.648;2022-09-27T13:22:47;14.90;99.90
29241;DHT22;16268;49.880;8.648;2022-09-27T13:24:47;14.60;99.90
29241;DHT22;16268;49.880;8.648;2022-09-27T13:29:51;14.00;99.90
29241;DHT22;16268;49.880;8.648;2022-09-27T13:32:18;14.00;99.90
29241;DHT22;16268;49.880;8.648;2022-09-27T13:34:51;13.90;99.90
29241;DHT22;16268;49.880;8.648;2022-09-27T13:42:39;13.60;99.90
29241;DHT22;16268;49.880;8.648;2022-09-27T13:48:01;13.60;99.90
29241;DHT22;16268;49.880;8.648;2022-09-27T13:50:55;13.60;99.90
29241;DHT22;16268;49.880;8.648;2022-09-27T13:53:38;13.70;99.90
29241;DHT22;16268;49.880;8.648;2022-09-27T13:56:05;13.70;99.90
29241;DHT22;16268;49.880;8.648;2022-09-27T13:59:00;13.80;99.90
29241;DHT22;16268;49.880;8.648;2022-09-27T14:01:38;13.80;99.90
29241;DHT22;16268;49.880;8.648;2022-09-27T14:04:27;13.80;99.90
29241;DHT22;16268;49.880;8.648;2022-09-27T14:06:58;13.90;99.90
29241;DHT22;16268;49.880;8.648;2022-09-27T14:09:37;14.00;99.90
29241;DHT22;16268;49.880;8.648;2022-09-27T14:12:10;14.00;99.90
29241;DHT22;16268;49.880;8.648;2022-09-27T14:14:36;14.10;99.90
29241;DHT22;16268;49.880;8.648;2022-09-27T14:17:06;14.00;99.90
29241;DHT22;16268;49.880;8.648;2022-09-27T14:19:32;14.10;99.90
29241;DHT22;16268;49.880;8.648;2022-09-27T14:21:58;14.20;99.90
29241;DHT22;16268;49.880;8.648;2022-09-27T14:24:32;14.30;99.90
29241;DHT22;16268;49.880;8.648;2022-09-27T14:27:12;14.40;99.90
29241;DHT22;16268;49.880;8.648;2022-09-27T14:32:22;14.20;99.90
29241;DHT22;16268;49.880;8.648;2022-09-27T14:37:59;14.10;99.90
29241;DHT22;16268;49.880;8.648;2022-09-27T14:40:25;14.10;99.90
29241;DHT22;16268;49.880;8.648;2022-09-27T14:42:54;14.20;99.90
29241;DHT22;16268;49.880;8.648;2022-09-27T14:47:59;14.50;99.90
29241;DHT22;16268;49.880;8.648;2022-09-27T14:50:27;14.50;99.90
29241;DHT22;16268;49.880;8.648;2022-09-27T14:52:55;14.40;99.90
29241;DHT22;16268;49.880;8.648;2022-09-27T14:55:30;14.40;99.90
29241;DHT22;16268;49.880;8.648;2022-09-27T14:58:00;14.30;99.90
29241;DHT22;16268;49.880;8.648;2022-09-27T15:00:32;14.30;99.90
29241;DHT22;16268;49.880;8.648;2022-09-27T15:03:03;14.20;99.90
29241;DHT22;16268;49.880;8.648;2022-09-27T15:05:31;14.20;99.90
29241;DHT22;16268;49.880;8.648;2022-09-27T15:08:00;14.30;99.90
29241;DHT22;16268;49.880;8.648;2022-09-27T15:10:28;14.20;99.90
29241;DHT22;16268;49.880;8.648;2022-09-27T15:12:58;14.30;99.90
29241;DHT22;16268;49.880;8.648;2022-09-27T15:15:33;14.30;99.90
29241;DHT22;16268;49.880;8.648;2022-09-27T15:18:00;14.20;99.90
29241;DHT22;16268;49.880;8.648;2022-09-27T15:20:34;14.20;99.90
29241;DHT22;16268;49.880;8.648;2022-09-27T15:23:01;14.10;99.90
29241;DHT22;16268;49.880;8.648;2022-09-27T15:25:36;14.00;99.90
29241;DHT22;16268;49.880;8.648;2022-09-27T15:28:15;13.90;99.90
29241;DHT22;16268;49.880;8.648;2022-09-27T15:30:50;13.70;99.90
29241;DHT22;16268;49.880;8.648;2022-09-27T15:33:20;13.60;99.90
29241;DHT22;16268;49.880;8.648;2022-09-27T15:35:51;13.30;99.90
29241;DHT22;16268;49.880;8.648;2022-09-27T15:38:29;13.00;99.90
29241;DHT22;16268;49.880;8.648;2022-09-27T15:43:36;12.70;99.90
29241;DHT22;16268;49.880;8.648;2022-09-27T15:46:25;12.60;99.90
29241;DHT22;16268;49.880;8.648;2022-09-27T15:49:17;12.50;99.90
29241;DHT22;16268;49.880;8.648;2022-09-27T15:51:54;12.40;99.90
29241;DHT22;16268;49.880;8.648;2022-09-27T15:54:22;12.30;99.90
29241;DHT22;16268;49.880;8.648;2022-09-27T15:56:49;12.20;99.90
29241;DHT22;16268;49.880;8.648;2022-09-27T15:59:27;12.20;99.90
29241;DHT22;16268;49.880;8.648;2022-09-27T16:01:57;12.10;99.90
29241;DHT22;16268;49.880;8.648;2022-09-27T16:04:24;12.10;99.90
29241;DHT22;16268;49.880;8.648;2022-09-27T16:06:51;12.20;99.90
29241;DHT22;16268;49.880;8.648;2022-09-27T16:09:18;12.20;99.90
29241;DHT22;16268;49.880;8.648;2022-09-27T16:11:45;12.20;99.90
29241;DHT22;16268;49.880;8.648;2022-09-27T16:14:11;12.10;99.90
29241;DHT22;16268;49.880;8.648;2022-09-27T16:16:44;12.00;99.90
29241;DHT22;16268;49.880;8.648;2022-09-27T16:19:11;12.00;99.90
29241;DHT22;16268;49.880;8.648;2022-09-27T16:21:37;12.00;99.90
29241;DHT22;16268;49.880;8.648;2022-09-27T16:24:03;12.10;99.90
29241;DHT22;16268;49.880;8.648;2022-09-27T16:26:29;12.20;99.90
29241;DHT22;16268;49.880;8.648;2022-09-27T16:28:54;12.20;99.90
29241;DHT22;16268;49.880;8.648;2022-09-27T16:31:20;12.10;99.90
29241;DHT22;16268;49.880;8.648;2022-09-27T16:33:49;12.10;99.90
29241;DHT22;16268;49.880;8.648;2022-09-27T16:36:16;12.10;99.90
29241;DHT22;16268;49.880;8.648;2022-09-27T16:38:48;12.10;99.90
29241;DHT22;16268;49.880;8.648;2022-09-27T16:41:14;12.00;99.90
29241;DHT22;16268;49.880;8.648;2022-09-27T16:43:40;12.00;99.90
29241;DHT22;16268;49.880;8.648;2022-09-27T16:46:06;12.00;99.90
29241;DHT22;16268;49.880;8.648;2022-09-27T16:48:34;12.00;99.90
29241;DHT22;16268;49.880;8.648;2022-09-27T16:51:10;12.00;99.90
29241;DHT22;16268;49.880;8.648;2022-09-27T16:53:54;12.00;99.90
29241;DHT22;16268;49.880;8.648;2022-09-27T16:56:20;12.00;99.90
29241;DHT22;16268;49.880;8.648;2022-09-27T16:58:46;12.00;99.90
29241;DHT22;16268;49.880;8.648;2022-09-27T17:01:12;11.90;99.90
29241;DHT22;16268;49.880;8.648;2022-09-27T17:03:40;11.90;99.90
29241;DHT22;16268;49.880;8.648;2022-09-27T17:06:06;11.90;99.90
29241;DHT22;16268;49.880;8.648;2022-09-27T17:08:31;11.90;99.90
29241;DHT22;16268;49.880;8.648;2022-09-27T17:10:57;11.90;99.90
29241;DHT22;16268;49.880;8.648;2022-09-27T17:13:24;11.90;99.90
29241;DHT22;16268;49.880;8.648;2022-09-27T17:15:50;12.00;99.90
29241;DHT22;16268;49.880;8.648;2022-09-27T17:18:16;12.00;99.90
29241;DHT22;16268;49.880;8.648;2022-09-27T17:20:41;12.00;99.90
29241;DHT22;16268;49.880;8.648;2022-09-27T17:23:08;12.00;99.90
29241;DHT22;16268;49.880;8.648;2022-09-27T17:25:33;12.00;99.90
29241;DHT22;16268;49.880;8.648;2022-09-27T17:27:59;12.00;99.90
29241;DHT22;16268;49.880;8.648;2022-09-27T17:30:25;11.90;99.90
29241;DHT22;16268;49.880;8.648;2022-09-27T17:32:50;11.90;99.90
29241;DHT22;16268;49.880;8.648;2022-09-27T17:35:16;11.90;99.90
29241;DHT22;16268;49.880;8.648;2022-09-27T17:37:41;11.80;99.90
29241;DHT22;16268;49.880;8.648;2022-09-27T17:40:07;11.80;99.90
29241;DHT22;16268;49.880;8.648;2022-09-27T17:42:33;11.80;99.90
29241;DHT22;16268;49.880;8.648;2022-09-27T17:45:01;11.80;99.90
29241;DHT22;16268;49.880;8.648;2022-09-27T17:47:27;11.80;99.90
29241;DHT22;16268;49.880;8.648;2022-09-27T17:50:11;11.80;99.90
29241;DHT22;16268;49.880;8.648;2022-09-27T17:52:52;11.70;99.90
29241;DHT22;16268;49.880;8.648;2022-09-27T17:55:18;11.70;99.90
29241;DHT22;16268;49.880;8.648;2022-09-27T17:57:46;11.70;99.90
29241;DHT22;16268;49.880;8.648;2022-09-27T18:00:13;11.70;99.90
29241;DHT22;16268;49.880;8.648;2022-09-27T18:02:39;11.70;99.90
29241;DHT22;16268;49.880;8.648;2022-09-27T18:05:05;11.70;99.90
29241;DHT22;16268;49.880;8.648;2022-09-27T18:07:31;11.70;99.90
29241;DHT22;16268;49.880;8.648;2022-09-27T18:09:57;11.60;99.90